createdAt,value
2017-04-23T00:00:00.210Z,73380
2017-04-23T00:00:10.008Z,73381
2017-04-23T00:00:20.092Z,73385
2017-04-23T00:00:30.182Z,73385
2017-04-23T00:00:40.270Z,73391
2017-04-23T00:00:50.355Z,73394
2017-04-23T00:01:00.442Z,73393
2017-04-23T00:01:10.249Z,73392
2017-04-23T00:01:20.336Z,73391
2017-04-23T00:01:30.424Z,73395
2017-04-23T00:01:40.506Z,73392
2017-04-23T00:01:50.584Z,73392
2017-04-23T00:02:00.675Z,73397
2017-04-23T00:02:10.760Z,73398
2017-04-23T00:02:20.851Z,73390
2017-04-23T00:02:30.936Z,73393
2017-04-23T00:02:41.020Z,73393
2017-04-23T00:02:51.109Z,73397
2017-04-23T00:03:01.199Z,73395
2017-04-23T00:03:10.996Z,73393
2017-04-23T00:03:21.078Z,73392
2017-04-23T00:03:31.159Z,73390
2017-04-23T00:03:40.959Z,73396
2017-04-23T00:03:51.042Z,73395
2017-04-23T00:04:01.126Z,73385
2017-04-23T00:04:10.923Z,73379
2017-04-23T00:04:21.014Z,73378
2017-04-23T00:04:30.817Z,73382
2017-04-23T00:04:40.906Z,73379
2017-04-23T00:04:50.700Z,73388
2017-04-23T00:05:00.788Z,73389
2017-04-23T00:05:10.598Z,73388
2017-04-23T00:05:20.393Z,73389
2017-04-23T00:05:30.484Z,73388
2017-04-23T00:05:40.576Z,73377
2017-04-23T00:05:50.660Z,73381
2017-04-23T00:06:00.750Z,73378
2017-04-23T00:06:10.260Z,73384
2017-04-23T00:06:20.054Z,73388
2017-04-23T00:06:30.149Z,73390
2017-04-23T00:06:40.237Z,73390
2017-04-23T00:06:50.329Z,73388
2017-04-23T00:07:00.122Z,73381
2017-04-23T00:07:09.929Z,73381
2017-04-23T00:07:19.731Z,73387
2017-04-23T00:07:29.809Z,73387
2017-04-23T00:07:39.904Z,73390
2017-04-23T00:07:49.990Z,73383
2017-04-23T00:08:00.072Z,73370
2017-04-23T00:08:09.870Z,73367
2017-04-23T00:08:19.962Z,73370
2017-04-23T00:08:30.049Z,73371
2017-04-23T00:08:40.132Z,73370
2017-04-23T00:08:50.216Z,73377
2017-04-23T00:09:00.299Z,73372
2017-04-23T00:09:10.384Z,73374
2017-04-23T00:09:20.466Z,73376
2017-04-23T00:09:30.547Z,73381
2017-04-23T00:09:40.630Z,73382
2017-04-23T00:09:50.716Z,73386
2017-04-23T00:10:00.804Z,73384
2017-04-23T00:10:10.606Z,73383
2017-04-23T00:10:20.697Z,73383
2017-04-23T00:10:30.785Z,73385
2017-04-23T00:10:40.870Z,73386
2017-04-23T00:10:50.959Z,73381
2017-04-23T00:11:00.760Z,73383
2017-04-23T00:11:10.567Z,73380
2017-04-23T00:11:20.359Z,73378
2017-04-23T00:11:30.166Z,73384
2017-04-23T00:11:40.249Z,73386
2017-04-23T00:11:50.342Z,73381
2017-04-23T00:12:00.444Z,73384
2017-04-23T00:12:10.244Z,73381
2017-04-23T00:12:20.060Z,73383
2017-04-23T00:12:29.855Z,73383
2017-04-23T00:12:39.952Z,73380
2017-04-23T00:12:50.035Z,73380
2017-04-23T00:13:00.127Z,73379
2017-04-23T00:13:10.211Z,73379
2017-04-23T00:13:20.315Z,73383
2017-04-23T00:13:30.404Z,73379
2017-04-23T00:13:40.202Z,73384
2017-04-23T00:13:50.283Z,73380
2017-04-23T00:14:00.083Z,73384
2017-04-23T00:14:09.882Z,73384
2017-04-23T00:14:19.971Z,73383
2017-04-23T00:14:30.061Z,73384
2017-04-23T00:14:40.154Z,73382
2017-04-23T00:14:50.252Z,73388
2017-04-23T00:15:00.347Z,73386
2017-04-23T00:15:10.436Z,73389
2017-04-23T00:15:20.232Z,73388
2017-04-23T00:15:30.322Z,73387
2017-04-23T00:15:40.411Z,73387
2017-04-23T00:15:50.214Z,73389
2017-04-23T00:16:00.302Z,73385
2017-04-23T00:16:10.097Z,73381
2017-04-23T00:16:20.193Z,73380
2017-04-23T00:16:30.281Z,73377
2017-04-23T00:16:40.371Z,73376
2017-04-23T00:16:50.460Z,73374
2017-04-23T00:17:00.557Z,73378
2017-04-23T00:17:10.640Z,73379
2017-04-23T00:17:20.443Z,73382
2017-04-23T00:17:30.242Z,73381
2017-04-23T00:17:40.331Z,73380
2017-04-23T00:17:50.446Z,73382
2017-04-23T00:18:00.533Z,73379
2017-04-23T00:18:10.335Z,73381
2017-04-23T00:18:20.142Z,73378
2017-04-23T00:18:29.944Z,73378
2017-04-23T00:18:40.040Z,73378
2017-04-23T00:18:50.133Z,73375
2017-04-23T00:18:59.944Z,73377
2017-04-23T00:19:09.747Z,73377
2017-04-23T00:19:19.851Z,73375
2017-04-23T00:19:29.941Z,73374
2017-04-23T00:19:40.039Z,73370
2017-04-23T00:19:49.839Z,73375
2017-04-23T00:19:59.642Z,73375
2017-04-23T00:20:08.869Z,73373
2017-04-23T00:20:18.390Z,73377
2017-04-23T00:20:28.480Z,73375
2017-04-23T00:20:38.565Z,73376
2017-04-23T00:20:48.654Z,73377
2017-04-23T00:20:58.742Z,73379
2017-04-23T00:21:08.832Z,73377
2017-04-23T00:21:18.639Z,73379
2017-04-23T00:21:28.724Z,73374
2017-04-23T00:21:38.826Z,73376
2017-04-23T00:21:48.911Z,73373
2017-04-23T00:21:59.002Z,73374
2017-04-23T00:22:08.801Z,73378
2017-04-23T00:22:18.890Z,73377
2017-04-23T00:22:28.681Z,73376
2017-04-23T00:22:38.770Z,73378
2017-04-23T00:22:48.568Z,73375
2017-04-23T00:22:58.650Z,73374
2017-04-23T00:23:08.737Z,73374
2017-04-23T00:23:18.825Z,73374
2017-04-23T00:23:28.914Z,73373
2017-04-23T00:23:38.715Z,73374
2017-04-23T00:23:48.817Z,73371
2017-04-23T00:23:58.911Z,73370
2017-04-23T00:24:08.719Z,73368
2017-04-23T00:24:18.237Z,73371
2017-04-23T00:24:28.040Z,73370
2017-04-23T00:24:38.135Z,73363
2017-04-23T00:24:48.225Z,73368
2017-04-23T00:24:58.065Z,73366
2017-04-23T00:25:08.148Z,73368
2017-04-23T00:25:17.672Z,73366
2017-04-23T00:25:27.759Z,73371
2017-04-23T00:25:37.851Z,73368
2017-04-23T00:25:47.943Z,73369
2017-04-23T00:25:58.026Z,73371
2017-04-23T00:26:08.111Z,73367
2017-04-23T00:26:17.625Z,73369
2017-04-23T00:26:27.712Z,73370
2017-04-23T00:26:37.804Z,73367
2017-04-23T00:26:47.889Z,73372
2017-04-23T00:26:57.973Z,73369
2017-04-23T00:27:07.765Z,73368
2017-04-23T00:27:17.854Z,73371
2017-04-23T00:27:27.934Z,73367
2017-04-23T00:27:38.018Z,73367
2017-04-23T00:27:48.107Z,73370
2017-04-23T00:27:57.905Z,73369
2017-04-23T00:28:08.013Z,73368
2017-04-23T00:28:17.813Z,73370
2017-04-23T00:28:27.899Z,73368
2017-04-23T00:28:37.986Z,73370
2017-04-23T00:28:48.073Z,73370
2017-04-23T00:28:57.876Z,73366
2017-04-23T00:29:07.958Z,73364
2017-04-23T00:29:18.040Z,73361
2017-04-23T00:29:28.122Z,73365
2017-04-23T00:29:37.920Z,73365
2017-04-23T00:29:48.004Z,73364
2017-04-23T00:29:58.089Z,73364
2017-04-23T00:30:07.892Z,73363
2017-04-23T00:30:17.692Z,73367
2017-04-23T00:30:27.785Z,73364
2017-04-23T00:30:37.873Z,73362
2017-04-23T00:30:47.677Z,73361
2017-04-23T00:30:57.766Z,73362
2017-04-23T00:31:07.850Z,73359
2017-04-23T00:31:17.936Z,73361
2017-04-23T00:31:28.019Z,73359
2017-04-23T00:31:38.114Z,73361
2017-04-23T00:31:47.915Z,73359
2017-04-23T00:31:58.001Z,73361
2017-04-23T00:32:07.797Z,73363
2017-04-23T00:32:17.887Z,73363
2017-04-23T00:32:27.971Z,73361
2017-04-23T00:32:37.770Z,73362
2017-04-23T00:32:47.855Z,73365
2017-04-23T00:32:57.944Z,73361
2017-04-23T00:33:08.038Z,73361
2017-04-23T00:33:17.837Z,73362
2017-04-23T00:33:27.926Z,73361
2017-04-23T00:33:38.005Z,73357
2017-04-23T00:33:48.091Z,73360
2017-04-23T00:33:58.181Z,73358
2017-04-23T00:34:08.289Z,73357
2017-04-23T00:34:17.806Z,73360
2017-04-23T00:34:27.896Z,73358
2017-04-23T00:34:37.697Z,73360
2017-04-23T00:34:47.780Z,73358
2017-04-23T00:34:57.581Z,73356
2017-04-23T00:35:07.675Z,73357
2017-04-23T00:35:17.185Z,73358
2017-04-23T00:35:27.263Z,73362
2017-04-23T00:35:37.348Z,73358
2017-04-23T00:35:47.429Z,73362
2017-04-23T00:35:57.510Z,73362
2017-04-23T00:36:07.597Z,73364
2017-04-23T00:36:17.685Z,73362
2017-04-23T00:36:27.773Z,73364
2017-04-23T00:36:37.864Z,73364
2017-04-23T00:36:47.662Z,73361
2017-04-23T00:36:57.753Z,73360
2017-04-23T00:37:07.849Z,73360
2017-04-23T00:37:17.648Z,73357
2017-04-23T00:37:27.738Z,73360
2017-04-23T00:37:37.824Z,73361
2017-04-23T00:37:47.929Z,73359
2017-04-23T00:37:58.017Z,73357
2017-04-23T00:38:08.104Z,73361
2017-04-23T00:38:18.192Z,73360
2017-04-23T00:38:27.991Z,73363
2017-04-23T00:38:38.083Z,73359
2017-04-23T00:38:48.164Z,73360
2017-04-23T00:38:58.249Z,73360
2017-04-23T00:39:08.075Z,73361
2017-04-23T00:39:18.162Z,73357
2017-04-23T00:39:28.252Z,73364
2017-04-23T00:39:38.360Z,73360
2017-04-23T00:39:48.444Z,73355
2017-04-23T00:39:58.533Z,73358
2017-04-23T00:40:08.046Z,73355
2017-04-23T00:40:17.556Z,73356
2017-04-23T00:40:27.668Z,73357
2017-04-23T00:40:37.760Z,73357
2017-04-23T00:40:47.843Z,73359
2017-04-23T00:40:57.931Z,73361
2017-04-23T00:41:08.014Z,73360
2017-04-23T00:41:17.527Z,73360
2017-04-23T00:41:27.610Z,73362
2017-04-23T00:41:37.698Z,73361
2017-04-23T00:41:47.786Z,73357
2017-04-23T00:41:57.609Z,73356
2017-04-23T00:42:07.697Z,73355
2017-04-23T00:42:17.211Z,73351
2017-04-23T00:42:27.296Z,73355
2017-04-23T00:42:37.383Z,73355
2017-04-23T00:42:47.469Z,73353
2017-04-23T00:42:57.556Z,73350
2017-04-23T00:43:07.357Z,73351
2017-04-23T00:43:17.160Z,73351
2017-04-23T00:43:27.250Z,73348
2017-04-23T00:43:37.355Z,73351
2017-04-23T00:43:47.449Z,73351
2017-04-23T00:43:57.541Z,73354
2017-04-23T00:44:07.336Z,73352
2017-04-23T00:44:17.132Z,73351
2017-04-23T00:44:27.214Z,73351
2017-04-23T00:44:37.312Z,73348
2017-04-23T00:44:47.112Z,73351
2017-04-23T00:44:57.204Z,73353
2017-04-23T00:45:07.003Z,73351
2017-04-23T00:45:16.798Z,73349
2017-04-23T00:45:26.887Z,73350
2017-04-23T00:45:36.695Z,73349
2017-04-23T00:45:46.496Z,73350
2017-04-23T00:45:56.580Z,73349
2017-04-23T00:46:06.668Z,73347
2017-04-23T00:46:16.762Z,73348
2017-04-23T00:46:26.852Z,73347
2017-04-23T00:46:36.938Z,73349
2017-04-23T00:46:46.743Z,73350
2017-04-23T00:46:56.833Z,73348
2017-04-23T00:47:06.629Z,73348
2017-04-23T00:47:16.426Z,73347
2017-04-23T00:47:26.516Z,73346
2017-04-23T00:47:36.602Z,73347
2017-04-23T00:47:46.686Z,73346
2017-04-23T00:47:56.775Z,73346
2017-04-23T00:48:06.864Z,73344
2017-04-23T00:48:16.661Z,73347
2017-04-23T00:48:26.461Z,73349
2017-04-23T00:48:36.548Z,73349
2017-04-23T00:48:46.636Z,73346
2017-04-23T00:48:56.723Z,73346
2017-04-23T00:49:06.819Z,73348
2017-04-23T00:49:16.623Z,73346
2017-04-23T00:49:26.713Z,73347
2017-04-23T00:49:36.511Z,73345
2017-04-23T00:49:46.597Z,73347
2017-04-23T00:49:56.110Z,73351
2017-04-23T00:50:05.621Z,73350
2017-04-23T00:50:15.707Z,73355
2017-04-23T00:50:25.831Z,73351
2017-04-23T00:50:35.914Z,73353
2017-04-23T00:50:45.719Z,73355
2017-04-23T00:50:55.803Z,73352
2017-04-23T00:51:05.893Z,73353
2017-04-23T00:51:15.406Z,73356
2017-04-23T00:51:25.494Z,73356
2017-04-23T00:51:35.582Z,73356
2017-04-23T00:51:45.667Z,73355
2017-04-23T00:51:55.759Z,73356
2017-04-23T00:52:05.853Z,73356
2017-04-23T00:52:15.659Z,73352
2017-04-23T00:52:25.746Z,73352
2017-04-23T00:52:35.553Z,73351
2017-04-23T00:52:45.647Z,73352
2017-04-23T00:52:55.753Z,73354
2017-04-23T00:53:05.840Z,73352
2017-04-23T00:53:15.924Z,73349
2017-04-23T00:53:26.026Z,73350
2017-04-23T00:53:35.822Z,73352
2017-04-23T00:53:45.934Z,73354
2017-04-23T00:53:56.020Z,73351
2017-04-23T00:54:06.111Z,73347
2017-04-23T00:54:16.199Z,73350
2017-04-23T00:54:25.706Z,73347
2017-04-23T00:54:35.790Z,73344
2017-04-23T00:54:45.875Z,73344
2017-04-23T00:54:55.964Z,73342
2017-04-23T00:55:06.051Z,73342
2017-04-23T00:55:15.287Z,73339
2017-04-23T00:55:25.375Z,73339
2017-04-23T00:55:35.175Z,73337
2017-04-23T00:55:44.976Z,73338
2017-04-23T00:55:55.057Z,73336
2017-04-23T00:56:04.867Z,73337
2017-04-23T00:56:14.665Z,73339
2017-04-23T00:56:24.757Z,73337
2017-04-23T00:56:34.842Z,73340
2017-04-23T00:56:44.938Z,73337
2017-04-23T00:56:55.029Z,73335
2017-04-23T00:57:04.828Z,73337
2017-04-23T00:57:14.923Z,73333
2017-04-23T00:57:25.008Z,73329
2017-04-23T00:57:35.098Z,73330
2017-04-23T00:57:45.182Z,73329
2017-04-23T00:57:55.274Z,73329
2017-04-23T00:58:05.367Z,73331
2017-04-23T00:58:15.164Z,73330
2017-04-23T00:58:25.255Z,73333
2017-04-23T00:58:35.341Z,73335
2017-04-23T00:58:45.143Z,73336
2017-04-23T00:58:55.233Z,73342
2017-04-23T00:59:05.036Z,73342
2017-04-23T00:59:15.118Z,73327
2017-04-23T00:59:24.646Z,73323
2017-04-23T00:59:34.731Z,73321
2017-04-23T00:59:44.546Z,73321
2017-04-23T00:59:54.629Z,73323
2017-04-23T01:00:04.430Z,73324
2017-04-23T01:00:14.521Z,73325
2017-04-23T01:00:24.623Z,73327
2017-04-23T01:00:34.421Z,73326
2017-04-23T01:00:44.510Z,73331
2017-04-23T01:00:54.593Z,73333
2017-04-23T01:01:04.677Z,73336
2017-04-23T01:01:14.769Z,73338
2017-04-23T01:01:24.855Z,73338
2017-04-23T01:01:34.658Z,73336
2017-04-23T01:01:44.764Z,73336
2017-04-23T01:01:54.851Z,73336
2017-04-23T01:02:04.942Z,73334
2017-04-23T01:02:14.172Z,73330
2017-04-23T01:02:24.264Z,73329
2017-04-23T01:02:34.352Z,73328
2017-04-23T01:02:44.443Z,73327
2017-04-23T01:02:54.528Z,73330
2017-04-23T01:03:04.609Z,73335
2017-04-23T01:03:14.699Z,73334
2017-04-23T01:03:24.493Z,73335
2017-04-23T01:03:34.293Z,73335
2017-04-23T01:03:44.086Z,73334
2017-04-23T01:03:53.886Z,73332
2017-04-23T01:04:03.977Z,73335
2017-04-23T01:04:14.062Z,73334
2017-04-23T01:04:24.151Z,73333
2017-04-23T01:04:34.233Z,73336
2017-04-23T01:04:44.033Z,73336
2017-04-23T01:04:53.835Z,73338
2017-04-23T01:05:03.641Z,73339
2017-04-23T01:05:13.439Z,73332
2017-04-23T01:05:23.238Z,73335
2017-04-23T01:05:33.324Z,73337
2017-04-23T01:05:43.119Z,73338
2017-04-23T01:05:53.207Z,73340
2017-04-23T01:06:03.296Z,73338
2017-04-23T01:06:13.091Z,73337
2017-04-23T01:06:23.184Z,73337
2017-04-23T01:06:33.274Z,73338
2017-04-23T01:06:43.362Z,73338
2017-04-23T01:06:53.454Z,73339
2017-04-23T01:07:03.248Z,73336
2017-04-23T01:07:12.762Z,73333
2017-04-23T01:07:22.848Z,73332
2017-04-23T01:07:32.937Z,73331
2017-04-23T01:07:43.030Z,73330
2017-04-23T01:07:53.119Z,73331
2017-04-23T01:08:03.220Z,73332
2017-04-23T01:08:13.312Z,73337
2017-04-23T01:08:23.109Z,73333
2017-04-23T01:08:33.204Z,73335
2017-04-23T01:08:43.288Z,73338
2017-04-23T01:08:53.083Z,73341
2017-04-23T01:09:03.174Z,73335
2017-04-23T01:09:12.984Z,73337
2017-04-23T01:09:22.792Z,73337
2017-04-23T01:09:32.896Z,73333
2017-04-23T01:09:42.981Z,73336
2017-04-23T01:09:53.086Z,73334
2017-04-23T01:10:02.894Z,73334
2017-04-23T01:10:12.698Z,73333
2017-04-23T01:10:22.502Z,73332
2017-04-23T01:10:32.597Z,73330
2017-04-23T01:10:42.401Z,73331
2017-04-23T01:10:52.493Z,73331
2017-04-23T01:11:02.582Z,73327
2017-04-23T01:11:12.681Z,73332
2017-04-23T01:11:22.785Z,73330
2017-04-23T01:11:32.887Z,73329
2017-04-23T01:11:42.970Z,73328
2017-04-23T01:11:53.059Z,73333
2017-04-23T01:12:03.147Z,73330
2017-04-23T01:12:12.951Z,73328
2017-04-23T01:12:23.041Z,73329
2017-04-23T01:12:32.845Z,73328
2017-04-23T01:12:42.931Z,73327
2017-04-23T01:12:53.023Z,73327
2017-04-23T01:13:03.109Z,73324
2017-04-23T01:13:12.910Z,73325
2017-04-23T01:13:23.001Z,73330
2017-04-23T01:13:33.089Z,73327
2017-04-23T01:13:42.615Z,73326
2017-04-23T01:13:52.717Z,73325
2017-04-23T01:14:02.805Z,73322
2017-04-23T01:14:12.893Z,73327
2017-04-23T01:14:22.985Z,73321
2017-04-23T01:14:33.081Z,73322
2017-04-23T01:14:42.586Z,73320
2017-04-23T01:14:52.394Z,73323
2017-04-23T01:15:02.201Z,73325
2017-04-23T01:15:12.288Z,73326
2017-04-23T01:15:22.111Z,73328
2017-04-23T01:15:32.210Z,73330
2017-04-23T01:15:42.012Z,73330
2017-04-23T01:15:52.103Z,73330
2017-04-23T01:16:02.195Z,73332
2017-04-23T01:16:11.998Z,73333
2017-04-23T01:16:22.096Z,73332
2017-04-23T01:16:32.195Z,73331
2017-04-23T01:16:42.280Z,73333
2017-04-23T01:16:52.081Z,73331
2017-04-23T01:17:02.170Z,73331
2017-04-23T01:17:11.682Z,73331
2017-04-23T01:17:21.481Z,73331
2017-04-23T01:17:31.570Z,73327
2017-04-23T01:17:41.658Z,73328
2017-04-23T01:17:51.472Z,73324
2017-04-23T01:18:01.274Z,73324
2017-04-23T01:18:11.077Z,73317
2017-04-23T01:18:20.880Z,73316
2017-04-23T01:18:30.967Z,73317
2017-04-23T01:18:41.056Z,73318
2017-04-23T01:18:50.858Z,73323
2017-04-23T01:19:00.951Z,73321
2017-04-23T01:19:11.039Z,73326
2017-04-23T01:19:20.840Z,73320
2017-04-23T01:19:30.932Z,73318
2017-04-23T01:19:40.730Z,73314
2017-04-23T01:19:50.818Z,73313
2017-04-23T01:20:00.622Z,73312
2017-04-23T01:20:10.706Z,73318
2017-04-23T01:20:20.221Z,73320
2017-04-23T01:20:29.730Z,73318
2017-04-23T01:20:39.531Z,73308
2017-04-23T01:20:49.330Z,73308
2017-04-23T01:20:59.414Z,73315
2017-04-23T01:21:09.505Z,73315
2017-04-23T01:21:19.306Z,73315
2017-04-23T01:21:29.396Z,73316
2017-04-23T01:21:39.492Z,73320
2017-04-23T01:21:49.288Z,73317
2017-04-23T01:21:59.380Z,73320
2017-04-23T01:22:09.180Z,73317
2017-04-23T01:22:18.688Z,73321
2017-04-23T01:22:28.772Z,73321
2017-04-23T01:22:38.859Z,73317
2017-04-23T01:22:48.947Z,73318
2017-04-23T01:22:59.039Z,73321
2017-04-23T01:23:09.125Z,73318
2017-04-23T01:23:18.637Z,73318
2017-04-23T01:23:28.729Z,73314
2017-04-23T01:23:38.813Z,73314
2017-04-23T01:23:48.902Z,73315
2017-04-23T01:23:58.988Z,73314
2017-04-23T01:24:08.499Z,73313
2017-04-23T01:24:18.589Z,73311
2017-04-23T01:24:28.681Z,73313
2017-04-23T01:24:38.780Z,73310
2017-04-23T01:24:48.589Z,73308
2017-04-23T01:24:58.398Z,73308
2017-04-23T01:25:08.203Z,73309
2017-04-23T01:25:18.291Z,73313
2017-04-23T01:25:28.097Z,73318
2017-04-23T01:25:38.181Z,73320
2017-04-23T01:25:47.984Z,73320
2017-04-23T01:25:58.079Z,73324
2017-04-23T01:26:08.162Z,73323
2017-04-23T01:26:18.243Z,73321
2017-04-23T01:26:28.352Z,73319
2017-04-23T01:26:38.434Z,73321
2017-04-23T01:26:48.520Z,73317
2017-04-23T01:26:58.316Z,73313
2017-04-23T01:27:08.403Z,73313
2017-04-23T01:27:18.488Z,73313
2017-04-23T01:27:28.578Z,73306
2017-04-23T01:27:38.668Z,73310
2017-04-23T01:27:48.469Z,73307
2017-04-23T01:27:58.564Z,73308
2017-04-23T01:28:08.656Z,73302
2017-04-23T01:28:18.450Z,73303
2017-04-23T01:28:28.539Z,73302
2017-04-23T01:28:38.621Z,73313
2017-04-23T01:28:48.424Z,73315
2017-04-23T01:28:58.504Z,73316
2017-04-23T01:29:08.592Z,73313
2017-04-23T01:29:18.391Z,73313
2017-04-23T01:29:28.479Z,73313
2017-04-23T01:29:38.565Z,73312
2017-04-23T01:29:48.656Z,73311
2017-04-23T01:29:58.737Z,73309
2017-04-23T01:30:08.826Z,73308
2017-04-23T01:30:18.913Z,73307
2017-04-23T01:30:29.008Z,73312
2017-04-23T01:30:39.090Z,73316
2017-04-23T01:30:49.177Z,73316
2017-04-23T01:30:59.260Z,73320
2017-04-23T01:31:09.343Z,73319
2017-04-23T01:31:19.438Z,73326
2017-04-23T01:31:29.525Z,73326
2017-04-23T01:31:39.616Z,73326
2017-04-23T01:31:49.700Z,73327
2017-04-23T01:31:59.784Z,73325
2017-04-23T01:32:09.293Z,73328
2017-04-23T01:32:19.393Z,73328
2017-04-23T01:32:29.477Z,73330
2017-04-23T01:32:38.992Z,73330
2017-04-23T01:32:49.077Z,73326
2017-04-23T01:32:59.165Z,73327
2017-04-23T01:33:09.246Z,73323
2017-04-23T01:33:19.334Z,73323
2017-04-23T01:33:29.133Z,73322
2017-04-23T01:33:39.224Z,73322
2017-04-23T01:33:49.036Z,73320
2017-04-23T01:33:59.124Z,73320
2017-04-23T01:34:09.212Z,73321
2017-04-23T01:34:18.735Z,73320
2017-04-23T01:34:28.824Z,73321
2017-04-23T01:34:38.912Z,73320
2017-04-23T01:34:48.997Z,73319
2017-04-23T01:34:58.796Z,73322
2017-04-23T01:35:08.595Z,73325
2017-04-23T01:35:18.396Z,73325
2017-04-23T01:35:28.483Z,73323
2017-04-23T01:35:38.282Z,73329
2017-04-23T01:35:48.372Z,73332
2017-04-23T01:35:58.471Z,73333
2017-04-23T01:36:08.560Z,73339
2017-04-23T01:36:18.360Z,73335
2017-04-23T01:36:28.460Z,73336
2017-04-23T01:36:38.549Z,73336
2017-04-23T01:36:48.055Z,73333
2017-04-23T01:36:57.567Z,73333
2017-04-23T01:37:07.655Z,73333
2017-04-23T01:37:17.455Z,73334
2017-04-23T01:37:27.544Z,73333
2017-04-23T01:37:37.630Z,73329
2017-04-23T01:37:47.719Z,73328
2017-04-23T01:37:57.800Z,73324
2017-04-23T01:38:07.885Z,73326
2017-04-23T01:38:17.679Z,73324
2017-04-23T01:38:27.761Z,73325
2017-04-23T01:38:37.851Z,73326
2017-04-23T01:38:47.932Z,73326
2017-04-23T01:38:57.450Z,73325
2017-04-23T01:39:07.542Z,73328
2017-04-23T01:39:17.626Z,73327
2017-04-23T01:39:27.715Z,73329
2017-04-23T01:39:37.800Z,73330
2017-04-23T01:39:47.883Z,73326
2017-04-23T01:39:57.971Z,73329
2017-04-23T01:40:08.061Z,73332
2017-04-23T01:40:18.156Z,73329
2017-04-23T01:40:27.954Z,73328
2017-04-23T01:40:37.762Z,73324
2017-04-23T01:40:47.853Z,73323
2017-04-23T01:40:57.939Z,73321
2017-04-23T01:41:08.024Z,73311
2017-04-23T01:41:17.833Z,73313
2017-04-23T01:41:27.918Z,73319
2017-04-23T01:41:38.009Z,73319
2017-04-23T01:41:48.092Z,73318
2017-04-23T01:41:58.175Z,73322
2017-04-23T01:42:07.982Z,73320
2017-04-23T01:42:18.068Z,73327
2017-04-23T01:42:28.155Z,73323
2017-04-23T01:42:37.952Z,73326
2017-04-23T01:42:48.049Z,73323
2017-04-23T01:42:58.132Z,73319
2017-04-23T01:43:08.217Z,73317
2017-04-23T01:43:17.743Z,73319
2017-04-23T01:43:27.832Z,73320
2017-04-23T01:43:37.916Z,73321
2017-04-23T01:43:48.003Z,73319
2017-04-23T01:43:58.090Z,73319
2017-04-23T01:44:07.890Z,73325
2017-04-23T01:44:17.981Z,73323
2017-04-23T01:44:28.066Z,73322
2017-04-23T01:44:38.150Z,73324
2017-04-23T01:44:48.234Z,73327
2017-04-23T01:44:58.029Z,73321
2017-04-23T01:45:08.118Z,73322
2017-04-23T01:45:17.921Z,73328
2017-04-23T01:45:28.016Z,73328
2017-04-23T01:45:38.104Z,73326
2017-04-23T01:45:48.189Z,73324
2017-04-23T01:45:57.985Z,73325
2017-04-23T01:46:07.501Z,73324
2017-04-23T01:46:17.585Z,73325
2017-04-23T01:46:27.680Z,73324
2017-04-23T01:46:37.775Z,73328
2017-04-23T01:46:47.867Z,73326
2017-04-23T01:46:57.954Z,73322
2017-04-23T01:47:07.760Z,73321
2017-04-23T01:47:17.273Z,73327
2017-04-23T01:47:27.077Z,73324
2017-04-23T01:47:36.597Z,73327
2017-04-23T01:47:46.683Z,73329
2017-04-23T01:47:56.767Z,73328
2017-04-23T01:48:06.281Z,73329
2017-04-23T01:48:16.367Z,73330
2017-04-23T01:48:26.167Z,73329
2017-04-23T01:48:36.252Z,73331
2017-04-23T01:48:46.055Z,73328
2017-04-23T01:48:56.143Z,73328
2017-04-23T01:49:06.223Z,73332
2017-04-23T01:49:16.020Z,73331
2017-04-23T01:49:26.103Z,73333
2017-04-23T01:49:36.188Z,73335
2017-04-23T01:49:46.304Z,73329
2017-04-23T01:49:56.389Z,73328
2017-04-23T01:50:06.469Z,73321
2017-04-23T01:50:15.984Z,73319
2017-04-23T01:50:26.074Z,73317
2017-04-23T01:50:35.873Z,73311
2017-04-23T01:50:45.676Z,73315
2017-04-23T01:50:55.762Z,73319
2017-04-23T01:51:05.850Z,73322
2017-04-23T01:51:15.934Z,73324
2017-04-23T01:51:25.737Z,73327
2017-04-23T01:51:35.538Z,73325
2017-04-23T01:51:45.336Z,73318
2017-04-23T01:51:55.139Z,73321
2017-04-23T01:52:05.227Z,73325
2017-04-23T01:52:15.025Z,73319
2017-04-23T01:52:25.111Z,73320
2017-04-23T01:52:35.207Z,73321
2017-04-23T01:52:45.308Z,73324
2017-04-23T01:52:55.401Z,73314
2017-04-23T01:53:05.202Z,73317
2017-04-23T01:53:15.289Z,73307
2017-04-23T01:53:25.090Z,73310
2017-04-23T01:53:35.177Z,73310
2017-04-23T01:53:44.987Z,73306
2017-04-23T01:53:54.792Z,73291
2017-04-23T01:54:04.887Z,73305
2017-04-23T01:54:14.697Z,73307
2017-04-23T01:54:24.799Z,73310
2017-04-23T01:54:34.598Z,73311
2017-04-23T01:54:44.683Z,73308
2017-04-23T01:54:54.772Z,73309
2017-04-23T01:55:04.586Z,73314
2017-04-23T01:55:14.670Z,73310
2017-04-23T01:55:24.765Z,73316
2017-04-23T01:55:34.568Z,73320
2017-04-23T01:55:44.076Z,73323
2017-04-23T01:55:54.161Z,73324
2017-04-23T01:56:03.670Z,73320
2017-04-23T01:56:13.755Z,73320
2017-04-23T01:56:23.558Z,73328
2017-04-23T01:56:33.642Z,73326
2017-04-23T01:56:43.444Z,73324
2017-04-23T01:56:53.524Z,73324
2017-04-23T01:57:03.320Z,73328
2017-04-23T01:57:13.414Z,73328
2017-04-23T01:57:23.505Z,73325
2017-04-23T01:57:33.589Z,73327
2017-04-23T01:57:43.396Z,73324
2017-04-23T01:57:52.917Z,73323
2017-04-23T01:58:03.007Z,73327
2017-04-23T01:58:12.807Z,73319
2017-04-23T01:58:22.611Z,73323
2017-04-23T01:58:32.418Z,73329
2017-04-23T01:58:42.501Z,73326
2017-04-23T01:58:52.600Z,73322
2017-04-23T01:59:02.690Z,73321
2017-04-23T01:59:12.785Z,73315
2017-04-23T01:59:22.872Z,73313
2017-04-23T01:59:32.962Z,73314
2017-04-23T01:59:43.045Z,73317
2017-04-23T01:59:52.861Z,73320
2017-04-23T02:00:02.949Z,73315
2017-04-23T02:00:13.034Z,73317
2017-04-23T02:00:23.112Z,73317
2017-04-23T02:00:33.192Z,73314
2017-04-23T02:00:43.278Z,73318
2017-04-23T02:00:53.083Z,73313
2017-04-23T02:01:03.166Z,73310
2017-04-23T02:01:13.254Z,73311
2017-04-23T02:01:23.343Z,73311
2017-04-23T02:01:33.425Z,73313
2017-04-23T02:01:43.516Z,73313
2017-04-23T02:01:53.606Z,73316
2017-04-23T02:02:03.411Z,73316
2017-04-23T02:02:13.510Z,73316
2017-04-23T02:02:23.601Z,73315
2017-04-23T02:02:33.688Z,73318
2017-04-23T02:02:43.776Z,73317
2017-04-23T02:02:53.866Z,73315
2017-04-23T02:03:03.668Z,73314
2017-04-23T02:03:13.179Z,73314
2017-04-23T02:03:23.273Z,73316
2017-04-23T02:03:33.368Z,73312
2017-04-23T02:03:43.458Z,73314
2017-04-23T02:03:53.546Z,73311
2017-04-23T02:04:03.344Z,73310
2017-04-23T02:04:13.149Z,73314
2017-04-23T02:04:22.951Z,73312
2017-04-23T02:04:33.045Z,73312
2017-04-23T02:04:43.129Z,73305
2017-04-23T02:04:53.236Z,73309
2017-04-23T02:05:03.034Z,73310
2017-04-23T02:05:12.549Z,73309
2017-04-23T02:05:22.630Z,73311
2017-04-23T02:05:32.718Z,73311
2017-04-23T02:05:42.806Z,73310
2017-04-23T02:05:52.889Z,73315
2017-04-23T02:06:02.974Z,73313
2017-04-23T02:06:13.058Z,73315
2017-04-23T02:06:22.853Z,73316
2017-04-23T02:06:32.934Z,73310
2017-04-23T02:06:42.757Z,73309
2017-04-23T02:06:52.559Z,73308
2017-04-23T02:07:02.648Z,73306
2017-04-23T02:07:12.449Z,73308
2017-04-23T02:07:22.260Z,73303
2017-04-23T02:07:32.351Z,73303
2017-04-23T02:07:42.450Z,73308
2017-04-23T02:07:52.545Z,73309
2017-04-23T02:08:02.359Z,73308
2017-04-23T02:08:12.159Z,73308
2017-04-23T02:08:22.256Z,73305